Time;durP1;ratioP1;P1;durP2;ratioP2;P2;SDS_P1;SDS_P2;PMS_P1;PMS_P2;Temp;Humidity;BMP_temperature;BMP_pressure;BME280_temperature;BME280_humidity;BME280_pressure;Samples;Min_cycle;Max_cycle;Signal;HPM_P1;HPM_P2
2023/12/18 00:00:15;;;;;;;10.18;3.63;;;;;;;16.01;100.00;102405.97;10564559;27;20051;-80
2023/12/18 00:05:38;;;;;;;5.50;2.70;;;;;;;15.91;100.00;102399.56;10565709;27;20100;-79
2023/12/18 00:11:01;;;;;;;8.00;2.60;;;;;;;15.91;100.00;102396.88;10549261;28;20096;-79
2023/12/18 00:16:25;;;;;;;4.60;2.08;;;;;;;15.95;100.00;102399.63;10544624;28;20044;-81
2023/12/18 00:21:48;;;;;;;6.90;2.97;;;;;;;15.91;100.00;102391.56;10550317;28;20142;-79
2023/12/18 00:27:10;;;;;;;9.20;2.55;;;;;;;15.53;100.00;102390.78;10572378;27;20554;-78
2023/12/18 00:32:34;;;;;;;9.10;2.05;;;;;;;15.36;100.00;102401.00;10603918;27;20059;-78
2023/12/18 00:37:57;;;;;;;6.22;2.45;;;;;;;15.42;100.00;102392.28;10560893;27;20058;-78
2023/12/18 00:43:19;;;;;;;7.30;2.60;;;;;;;15.59;100.00;102382.91;10570119;28;20111;-78
2023/12/18 00:48:43;;;;;;;6.57;2.40;;;;;;;15.68;100.00;102376.91;10561209;28;20451;-78
2023/12/18 00:54:06;;;;;;;11.30;2.67;;;;;;;15.81;100.00;102374.53;10547042;28;20048;-79
2023/12/18 00:59:28;;;;;;;13.80;2.40;;;;;;;15.83;100.00;102374.53;10561582;28;20048;-79
2023/12/18 01:04:52;;;;;;;7.13;2.17;;;;;;;15.95;100.00;102373.00;10585457;27;20051;-79
2023/12/18 01:10:14;;;;;;;8.05;1.95;;;;;;;16.02;100.00;102367.78;10589114;27;20039;-79
2023/12/18 01:15:37;;;;;;;7.70;2.25;;;;;;;16.16;100.00;102360.97;10602247;27;20113;-78
2023/12/18 01:21:03;;;;;;;4.78;2.33;;;;;;;16.18;100.00;102354.78;10600135;27;20051;-79
2023/12/18 01:26:25;;;;;;;7.03;2.08;;;;;;;16.24;100.00;102357.56;10600971;27;20053;-79
2023/12/18 01:31:49;;;;;;;6.35;2.30;;;;;;;16.29;100.00;102349.66;10596430;27;20074;-79
2023/12/18 01:37:13;;;;;;;6.60;2.08;;;;;;;16.23;100.00;102337.13;10546333;28;20036;-79
2023/12/18 01:42:36;;;;;;;7.43;2.13;;;;;;;16.26;100.00;102346.94;10597554;28;20047;-80
2023/12/18 01:47:59;;;;;;;7.60;1.60;;;;;;;16.25;100.00;102343.38;10593503;27;20044;-78
2023/12/18 01:53:24;;;;;;;8.65;1.98;;;;;;;16.30;100.00;102331.03;10559778;28;20212;-79
2023/12/18 01:58:48;;;;;;;8.50;2.55;;;;;;;16.34;100.00;102322.19;10560381;28;20509;-78
2023/12/18 02:04:10;;;;;;;9.32;2.30;;;;;;;16.30;100.00;102332.78;10564617;27;20082;-79
2023/12/18 02:09:35;;;;;;;7.20;2.40;;;;;;;16.24;100.00;102327.34;10545205;28;20043;-78
2023/12/18 02:14:58;;;;;;;6.55;2.05;;;;;;;16.26;100.00;102314.97;10578235;28;20063;-78
2023/12/18 02:20:20;;;;;;;8.15;2.20;;;;;;;16.18;100.00;102311.25;10587450;28;20393;-78
2023/12/18 02:25:44;;;;;;;6.18;2.30;;;;;;;16.26;100.00;102310.53;10558861;28;20075;-79
2023/12/18 02:31:08;;;;;;;6.00;2.20;;;;;;;16.21;100.00;102316.66;10577398;28;20040;-79
2023/12/18 02:36:31;;;;;;;8.02;2.10;;;;;;;16.29;100.00;102304.34;10560905;28;20056;-78
2023/12/18 02:41:55;;;;;;;7.60;2.35;;;;;;;16.25;100.00;102315.81;10582076;27;20187;-78
2023/12/18 02:47:17;;;;;;;5.45;2.17;;;;;;;16.30;100.00;102306.13;10593553;27;20066;-78
2023/12/18 02:52:39;;;;;;;12.15;3.28;;;;;;;16.34;100.00;102308.00;10573916;27;20092;-78
2023/12/18 02:58:03;;;;;;;10.43;2.17;;;;;;;16.28;100.00;102314.09;10566125;28;20059;-78
2023/12/18 03:03:26;;;;;;;9.20;3.15;;;;;;;16.26;100.00;102315.88;10538614;28;20044;-79
2023/12/18 03:08:48;;;;;;;9.52;3.05;;;;;;;16.36;100.00;102306.25;10572567;27;20059;-79
2023/12/18 03:14:12;;;;;;;6.10;2.53;;;;;;;16.38;100.00;102307.16;10593325;27;20051;-79
2023/12/18 03:19:35;;;;;;;8.80;2.50;;;;;;;16.31;100.00;102303.50;10606964;27;20100;-78
2023/12/18 03:24:57;;;;;;;6.72;2.75;;;;;;;16.27;100.00;102303.44;10585248;27;20675;-78
2023/12/18 03:30:21;;;;;;;8.60;3.15;;;;;;;16.33;100.00;102306.22;10601155;27;20043;-79
2023/12/18 03:35:43;;;;;;;10.73;2.85;;;;;;;16.40;100.00;102309.88;10564238;27;20420;-78
2023/12/18 03:41:06;;;;;;;6.55;2.30;;;;;;;16.33;100.00;102317.78;10568960;28;20093;-78
2023/12/18 03:46:30;;;;;;;7.65;2.10;;;;;;;16.39;100.00;102316.97;10564046;27;20057;-78
2023/12/18 03:51:53;;;;;;;7.50;2.15;;;;;;;16.42;100.00;102316.09;10590552;27;20488;-79
2023/12/18 03:57:16;;;;;;;6.85;2.10;;;;;;;16.38;100.00;102323.16;10606156;27;20043;-79
2023/12/18 04:02:40;;;;;;;7.18;2.60;;;;;;;16.39;100.00;102334.72;10601314;27;20640;-79
2023/12/18 04:08:02;;;;;;;7.43;3.05;;;;;;;16.35;100.00;102336.44;10567331;27;20097;-78
2023/12/18 04:13:25;;;;;;;6.15;2.20;;;;;;;16.34;100.00;102342.66;10581183;27;20497;-78
2023/12/18 04:18:50;;;;;;;6.35;3.05;;;;;;;16.33;100.00;102338.19;10548904;28;20051;-79
2023/12/18 04:24:12;;;;;;;10.30;2.30;;;;;;;16.38;100.00;102351.59;10562548;28;20158;-78
2023/12/18 04:29:35;;;;;;;4.32;2.13;;;;;;;16.37;100.00;102341.78;10583431;27;20077;-79
2023/12/18 04:34:59;;;;;;;4.30;2.05;;;;;;;16.37;100.00;102344.47;10566554;27;20052;-78
2023/12/18 04:40:21;;;;;;;8.32;2.30;;;;;;;16.35;100.00;102348.00;10565260;27;20039;-79
2023/12/18 04:45:44;;;;;;;8.23;3.10;;;;;;;16.35;100.00;102355.97;10586333;27;20061;-78
2023/12/18 04:51:08;;;;;;;8.13;2.28;;;;;;;16.37;100.00;102350.69;10532695;28;20093;-78
2023/12/18 04:56:31;;;;;;;6.40;2.30;;;;;;;16.39;100.00;102364.94;10519269;28;20056;-78
2023/12/18 05:01:53;;;;;;;8.60;2.42;;;;;;;16.41;100.00;102360.50;10550417;28;20052;-78
2023/12/18 05:07:17;;;;;;;9.98;2.55;;;;;;;16.42;100.00;102364.97;10527167;28;20047;-79
2023/12/18 05:12:40;;;;;;;6.30;2.63;;;;;;;16.36;100.00;102364.88;10553569;28;20069;-79
2023/12/18 05:18:02;;;;;;;6.07;2.65;;;;;;;16.43;100.00;102372.13;10527107;28;20047;-78
2023/12/18 05:23:26;;;;;;;7.95;2.47;;;;;;;16.37;100.00;102376.44;10532280;28;20555;-78
2023/12/18 05:28:49;;;;;;;4.38;2.47;;;;;;;16.32;100.00;102384.38;10549407;28;20044;-78
2023/12/18 05:34:11;;;;;;;6.57;2.67;;;;;;;16.28;100.00;102379.84;10547625;28;20044;-79
2023/12/18 05:39:35;;;;;;;5.45;2.85;;;;;;;16.32;100.00;102384.38;10560124;28;20052;-78
2023/12/18 05:44:57;;;;;;;7.60;2.42;;;;;;;16.29;100.00;102374.53;10554603;28;20055;-79
2023/12/18 05:50:20;;;;;;;6.43;3.08;;;;;;;16.29;100.00;102385.19;10546194;28;20097;-79
2023/12/18 05:55:44;;;;;;;8.57;2.78;;;;;;;16.34;100.00;102385.31;10599827;27;20051;-78
2023/12/18 06:01:06;;;;;;;6.40;3.30;;;;;;;16.47;100.00;102389.09;10574499;28;20548;-78
2023/12/18 06:06:29;;;;;;;4.07;2.95;;;;;;;16.50;100.00;102395.34;10580897;28;20104;-78
2023/12/18 06:11:52;;;;;;;10.25;2.97;;;;;;;16.54;100.00;102398.97;10603822;27;20116;-79
2023/12/18 06:17:15;;;;;;;11.52;5.55;;;;;;;16.65;100.00;102398.31;10588815;27;20062;-79
2023/12/18 06:22:37;;;;;;;4.72;2.38;;;;;;;16.81;100.00;102407.47;10584279;27;20556;-79
2023/12/18 06:28:01;;;;;;;5.63;3.40;;;;;;;16.86;100.00;102411.13;10569305;28;20397;-82
2023/12/18 06:33:24;;;;;;;6.90;5.70;;;;;;;16.90;100.00;102409.38;10573198;27;20047;-79
2023/12/18 06:38:46;;;;;;;29.55;7.65;;;;;;;16.90;100.00;102415.63;10568584;28;20039;-78
2023/12/18 06:44:10;;;;;;;14.73;9.75;;;;;;;16.92;100.00;102424.56;10583451;27;20504;-78
2023/12/18 06:49:33;;;;;;;8.55;5.57;;;;;;;17.04;100.00;102437.19;10593789;27;20043;-78
2023/12/18 06:54:55;;;;;;;8.07;4.85;;;;;;;16.99;100.00;102426.47;10573758;27;20182;-79
2023/12/18 07:00:20;;;;;;;12.00;5.10;;;;;;;17.07;100.00;102429.22;10599626;27;20075;-78
2023/12/18 07:05:43;;;;;;;12.88;4.80;;;;;;;17.11;100.00;102436.41;10592818;27;20046;-79
2023/12/18 07:11:05;;;;;;;15.07;6.85;;;;;;;17.10;100.00;102424.84;10606152;27;20100;-78
2023/12/18 07:16:29;;;;;;;7.53;4.50;;;;;;;17.27;100.00;102424.19;10607354;27;20055;-79
2023/12/18 07:21:51;;;;;;;10.18;3.90;;;;;;;17.50;100.00;102431.69;10580981;27;20044;-78
2023/12/18 07:27:14;;;;;;;5.03;2.90;;;;;;;17.77;100.00;102430.28;10566026;27;20051;-79
2023/12/18 07:32:38;;;;;;;10.95;5.78;;;;;;;17.98;100.00;102422.53;10554586;27;20051;-79
2023/12/18 07:38:00;;;;;;;7.30;4.10;;;;;;;17.92;100.00;102420.66;10587221;27;20047;-79
2023/12/18 07:43:23;;;;;;;11.57;7.15;;;;;;;17.82;100.00;102420.53;10575511;27;20042;-79
2023/12/18 07:48:47;;;;;;;9.93;3.88;;;;;;;17.67;100.00;102423.00;10596735;27;20100;-79
2023/12/18 07:54:09;;;;;;;7.80;3.20;;;;;;;17.80;100.00;102427.63;10605367;27;20645;-79
2023/12/18 07:59:32;;;;;;;9.82;3.60;;;;;;;17.88;100.00;102412.59;10574074;27;20047;-79
2023/12/18 08:04:56;;;;;;;9.93;5.43;;;;;;;17.96;100.00;102407.34;10597756;27;20054;-78
2023/12/18 08:10:19;;;;;;;11.05;5.10;;;;;;;18.14;100.00;102429.84;10587865;27;20051;-79
2023/12/18 08:15:42;;;;;;;8.63;3.97;;;;;;;18.41;100.00;102420.31;10571574;27;20054;-79
2023/12/18 08:21:06;;;;;;;9.07;4.47;;;;;;;18.26;100.00;102416.59;10594958;27;20051;-80
2023/12/18 08:26:28;;;;;;;13.48;4.10;;;;;;;18.33;100.00;102417.56;10555923;27;20047;-80
2023/12/18 08:31:51;;;;;;;8.98;4.65;;;;;;;18.61;100.00;102419.66;10560488;27;20451;-80
2023/12/18 08:37:15;;;;;;;9.18;4.25;;;;;;;18.78;100.00;102411.78;10570903;27;20046;-81
2023/12/18 08:42:37;;;;;;;6.07;3.88;;;;;;;18.81;100.00;102414.50;10577228;27;20054;-80
2023/12/18 08:48:01;;;;;;;7.60;3.47;;;;;;;19.07;99.05;102404.88;10573291;27;20625;-79
2023/12/18 08:53:25;;;;;;;12.80;3.75;;;;;;;19.35;96.87;102405.97;10561931;27;20688;-79
2023/12/18 08:58:49;;;;;;;7.13;3.25;;;;;;;19.53;94.99;102401.59;10596981;27;20083;-78
2023/12/18 09:04:11;;;;;;;9.52;3.30;;;;;;;20.20;89.62;102392.94;10576668;27;20039;-79
2023/12/18 09:09:39;;;;;;;12.38;3.60;;;;;;;21.74;76.70;102385.63;10598584;27;20047;-79
2023/12/18 09:15:01;;;;;;;9.88;4.70;;;;;;;21.91;74.01;102385.56;10603590;27;20054;-79
2023/12/18 09:20:24;;;;;;;7.50;3.92;;;;;;;21.45;73.95;102375.03;10564652;27;20125;-79
2023/12/18 09:25:49;;;;;;;10.98;4.30;;;;;;;21.13;75.16;102376.88;10585298;27;20047;-77
2023/12/18 09:31:11;;;;;;;8.48;4.22;;;;;;;20.79;75.62;102362.59;10572612;27;20054;-81
2023/12/18 09:36:34;;;;;;;9.63;3.78;;;;;;;20.68;74.75;102350.94;10585343;27;20054;-78
2023/12/18 09:42:04;;;;;;;10.73;3.22;;;;;;;20.87;71.45;102347.34;10599865;27;20043;-82
2023/12/18 09:47:27;;;;;;;8.93;2.78;;;;;;;21.10;69.08;102341.94;10604143;27;20043;-83
2023/12/18 09:53:00;;;;;;;6.43;3.20;;;;;;;21.40;67.84;102325.75;10575331;27;20496;-78
2023/12/18 09:58:31;;;;;;;6.22;2.55;;;;;;;21.69;64.26;102320.25;10566743;27;20058;-79
2023/12/18 10:03:53;;;;;;;8.30;2.90;;;;;;;21.80;62.89;102321.06;10588953;27;20036;-80
2023/12/18 10:09:16;;;;;;;4.60;2.38;;;;;;;21.74;62.38;102306.75;10594206;27;20337;-79
2023/12/18 10:14:40;;;;;;;5.38;2.92;;;;;;;21.36;64.53;102312.34;10601163;27;20120;-81
2023/12/18 10:20:03;;;;;;;5.15;2.60;;;;;;;21.37;64.22;102298.00;10597590;27;20500;-81
2023/12/18 10:25:26;;;;;;;7.50;2.78;;;;;;;21.33;62.80;102301.63;10608523;27;20130;-81
2023/12/18 10:30:49;;;;;;;6.93;2.40;;;;;;;21.07;63.67;102299.84;10608035;27;20055;-81
2023/12/18 10:36:12;;;;;;;7.95;2.60;;;;;;;21.50;61.33;102294.38;10608419;27;20043;-81
2023/12/18 10:41:39;;;;;;;9.85;2.60;;;;;;;21.51;60.16;102285.41;10607965;27;20047;-80
2023/12/18 10:47:05;;;;;;;7.30;2.33;;;;;;;21.97;57.20;102277.97;10600036;27;20051;-80
2023/12/18 10:52:30;;;;;;;4.93;2.38;;;;;;;22.66;53.07;102275.56;10594818;27;20415;-82
2023/12/18 10:57:56;;;;;;;5.10;2.40;;;;;;;21.89;53.62;102271.72;10587570;27;20051;-80
2023/12/18 11:03:26;;;;;;;6.85;2.50;;;;;;;21.48;55.43;102270.16;10575731;27;20503;-79
2023/12/18 11:08:50;;;;;;;6.25;2.67;;;;;;;20.94;57.54;102273.03;10591454;27;20055;-78
2023/12/18 11:14:29;;;;;;;8.10;2.67;;;;;;;20.23;61.75;102268.63;10587269;27;20051;-80
2023/12/18 11:20:00;;;;;;;5.78;2.33;;;;;;;19.43;67.20;102277.38;10597713;27;20137;-79
2023/12/18 11:25:28;;;;;;;6.10;2.35;;;;;;;19.17;71.57;102265.69;10582166;27;20123;-80
2023/12/18 11:30:50;;;;;;;10.48;2.60;;;;;;;19.05;73.44;102264.75;10589225;27;20051;-80
2023/12/18 11:36:17;;;;;;;11.90;2.40;;;;;;;19.03;76.24;102265.66;10579476;27;20058;-79
2023/12/18 11:41:44;;;;;;;10.02;2.50;;;;;;;19.09;77.78;102249.63;10590430;27;20130;-80
2023/12/18 11:47:07;;;;;;;5.90;2.13;;;;;;;19.19;77.94;102251.41;10584285;27;20067;-79
2023/12/18 11:52:32;;;;;;;9.65;2.95;;;;;;;19.39;76.59;102236.31;10606589;27;20047;-78
2023/12/18 11:57:55;;;;;;;10.57;2.65;;;;;;;19.83;75.58;102230.19;10603093;27;20192;-79
2023/12/18 12:03:18;;;;;;;5.18;2.30;;;;;;;20.04;71.46;102227.53;10602850;27;20486;-80
2023/12/18 12:08:48;;;;;;;6.07;2.25;;;;;;;20.45;68.87;102230.22;10581778;27;20418;-82
2023/12/18 12:14:10;;;;;;;7.07;2.88;;;;;;;20.45;67.64;102232.00;10604236;27;20062;-82
2023/12/18 12:19:34;;;;;;;6.35;2.25;;;;;;;20.75;64.95;102229.25;10605467;27;20061;-82
2023/12/18 12:24:58;;;;;;;7.55;2.30;;;;;;;21.29;61.22;102233.53;10588241;27;20055;-81
2023/12/18 12:30:22;;;;;;;5.03;2.30;;;;;;;20.28;67.70;102242.72;10589037;27;20054;-84
2023/12/18 12:35:56;;;;;;;6.22;2.40;;;;;;;20.02;71.63;102215.03;10589217;27;20099;-85
2023/12/18 12:41:23;;;;;;;5.55;2.38;;;;;;;20.15;67.37;102217.69;10590854;27;20540;-81
2023/12/18 12:46:45;;;;;;;6.15;2.90;;;;;;;19.89;67.21;102217.69;10600284;27;20499;-81
2023/12/18 12:52:08;;;;;;;8.63;3.00;;;;;;;20.07;67.09;102219.50;10575330;27;20121;-81
2023/12/18 12:57:32;;;;;;;5.50;3.00;;;;;;;19.95;66.75;102226.66;10574904;27;20055;-82
2023/12/18 13:02:55;;;;;;;6.80;2.55;;;;;;;19.85;67.32;102231.97;10558129;27;20060;-80
2023/12/18 13:08:18;;;;;;;11.85;3.00;;;;;;;19.70;67.44;102233.75;10570148;27;20039;-81
2023/12/18 13:13:42;;;;;;;8.40;2.75;;;;;;;19.62;66.80;102247.16;10573018;27;20710;-83
2023/12/18 13:19:05;;;;;;;3.97;2.67;;;;;;;19.95;65.27;102250.78;10577448;27;20505;-84
2023/12/18 13:24:27;;;;;;;6.85;2.90;;;;;;;19.45;66.59;102260.44;10580060;27;20039;-84
2023/12/18 13:29:52;;;;;;;6.78;2.25;;;;;;;18.90;70.21;102245.97;10569124;27;20047;-83
2023/12/18 13:35:15;;;;;;;7.55;2.47;;;;;;;19.15;68.20;102241.59;10577272;27;20071;-83
2023/12/18 13:40:38;;;;;;;4.93;2.20;;;;;;;19.15;67.94;102257.66;10600375;27;20134;-83
2023/12/18 13:46:02;;;;;;;5.00;2.60;;;;;;;18.88;70.56;102254.84;10568102;28;20477;-81
2023/12/18 13:51:26;;;;;;;11.80;4.00;;;;;;;19.01;72.90;102265.63;10565967;28;20609;-81
2023/12/18 13:56:50;;;;;;;8.13;4.30;;;;;;;19.01;75.83;102256.69;10603369;28;20046;-83
2023/12/18 14:02:14;;;;;;;11.35;4.03;;;;;;;18.62;81.21;102254.69;10599897;28;20043;-82
2023/12/18 14:07:37;;;;;;;12.30;3.40;;;;;;;18.40;85.49;102258.06;10586147;28;20066;-82
2023/12/18 14:12:59;;;;;;;8.93;2.92;;;;;;;18.38;87.15;102251.81;10603358;28;20046;-82
2023/12/18 14:18:23;;;;;;;8.25;4.07;;;;;;;18.21;86.74;102265.03;10571611;28;20048;-81
2023/12/18 14:23:46;;;;;;;13.55;7.63;;;;;;;18.05;86.91;102269.34;10550017;28;20055;-81
2023/12/18 14:29:08;;;;;;;7.95;2.45;;;;;;;17.79;89.27;102261.09;10599152;28;20092;-81
2023/12/18 14:34:32;;;;;;;6.47;4.07;;;;;;;17.54;90.40;102270.59;10590144;27;20044;-81
2023/12/18 14:39:55;;;;;;;28.67;12.57;;;;;;;17.37;90.94;102268.59;10582744;27;20139;-83
2023/12/18 14:45:17;;;;;;;10.77;7.57;;;;;;;16.88;93.48;102251.97;10553080;28;20047;-81
2023/12/18 14:50:42;;;;;;;11.55;4.38;;;;;;;16.60;96.74;102252.47;10572434;27;20047;-80
2023/12/18 14:56:08;;;;;;;16.63;11.50;;;;;;;16.54;99.27;102252.34;10576988;27;20151;-80
2023/12/18 15:01:31;;;;;;;8.18;4.88;;;;;;;16.40;100.00;102238.78;10590838;27;20036;-86
2023/12/18 15:06:57;;;;;;;8.23;4.28;;;;;;;15.91;100.00;102243.31;10583945;27;20488;-80
2023/12/18 15:12:20;;;;;;;8.43;4.75;;;;;;;15.51;100.00;102246.06;10602426;27;20043;-82
2023/12/18 15:17:42;;;;;;;17.95;11.20;;;;;;;15.29;100.00;102254.50;10586194;27;20047;-78
2023/12/18 15:23:06;;;;;;;14.95;7.63;;;;;;;15.00;100.00;102257.44;10601988;27;20043;-83
2023/12/18 15:28:29;;;;;;;13.10;9.23;;;;;;;14.93;100.00;102255.53;10594058;27;20126;-82
2023/12/18 15:33:51;;;;;;;15.77;7.72;;;;;;;14.86;100.00;102255.34;10600006;27;20071;-85
2023/12/18 15:39:16;;;;;;;10.82;5.32;;;;;;;14.77;100.00;102250.72;10580452;27;20413;-82
2023/12/18 15:44:39;;;;;;;16.38;10.00;;;;;;;14.62;100.00;102253.03;10567489;27;20047;-83
2023/12/18 15:50:01;;;;;;;15.60;8.00;;;;;;;14.58;100.00;102251.16;10584054;27;20047;-82
2023/12/18 15:55:25;;;;;;;21.13;8.00;;;;;;;14.50;100.00;102255.44;10572859;27;20039;-82
2023/12/18 16:00:48;;;;;;;13.23;6.78;;;;;;;14.41;100.00;102255.19;10605217;27;20066;-83
2023/12/18 16:06:12;;;;;;;10.23;7.05;;;;;;;14.47;100.00;102261.56;10584630;27;20055;-82
2023/12/18 16:11:36;;;;;;;11.23;6.35;;;;;;;14.46;100.00;102261.50;10564571;28;20097;-82
2023/12/18 16:17:04;;;;;;;7.35;4.72;;;;;;;14.73;100.00;102279.00;10549683;27;20142;-80
2023/12/18 16:22:26;;;;;;;13.35;4.30;;;;;;;14.64;100.00;102286.75;10549683;28;20047;-81
2023/12/18 16:27:57;;;;;;;10.93;6.88;;;;;;;14.80;100.00;102276.50;10575156;27;20100;-81
2023/12/18 16:33:20;;;;;;;11.38;7.75;;;;;;;14.90;100.00;102276.72;10605394;27;20392;-81
2023/12/18 16:38:47;;;;;;;10.32;6.72;;;;;;;14.85;100.00;102282.78;10603347;27;20214;-82
2023/12/18 16:44:14;;;;;;;12.10;5.60;;;;;;;15.00;100.00;102277.81;10591755;27;20089;-82
2023/12/18 16:49:38;;;;;;;14.00;5.90;;;;;;;15.22;100.00;102273.88;10591218;27;20051;-81
2023/12/18 16:55:01;;;;;;;7.18;5.22;;;;;;;15.23;100.00;102279.19;10580767;27;20047;-82
2023/12/18 17:00:29;;;;;;;11.13;4.93;;;;;;;15.20;100.00;102275.59;10563926;28;20044;-82
2023/12/18 17:05:52;;;;;;;;;;;;;;;15.44;100.00;102273.44;10550001;28;20043;-84
2023/12/18 17:11:15;;;;;;;15.82;7.43;;;;;;;15.51;100.00;102264.69;10570098;27;19926;-84
2023/12/18 17:16:42;;;;;;;13.82;6.10;;;;;;;15.41;100.00;102260.06;10553085;27;20073;-83
2023/12/18 17:22:04;;;;;;;17.05;7.15;;;;;;;15.36;100.00;102253.78;10604823;27;20047;-84
2023/12/18 17:27:27;;;;;;;11.63;4.53;;;;;;;15.47;100.00;102250.44;10592985;27;20055;-83
2023/12/18 17:32:52;;;;;;;12.35;4.63;;;;;;;15.67;100.00;102253.53;10561718;28;20063;-83
2023/12/18 17:38:14;;;;;;;15.70;9.18;;;;;;;15.56;100.00;102248.88;10577615;27;20394;-84
2023/12/18 17:43:36;;;;;;;19.77;14.50;;;;;;;15.33;100.00;102265.25;10588478;27;20115;-83
2023/12/18 17:49:00;;;;;;;29.20;14.13;;;;;;;15.49;100.00;102269.97;10588826;28;20047;-83
2023/12/18 17:54:23;;;;;;;24.42;13.48;;;;;;;15.54;100.00;102259.47;10603491;28;20059;-85
2023/12/18 17:59:47;;;;;;;12.10;6.57;;;;;;;15.56;100.00;102255.06;10585896;28;20392;-86
2023/12/18 18:05:11;;;;;;;23.55;18.58;;;;;;;15.76;100.00;102243.03;10590316;28;20135;-85
2023/12/18 18:10:33;;;;;;;18.80;16.70;;;;;;;15.81;100.00;102245.78;10610595;27;20044;-85
2023/12/18 18:15:56;;;;;;;24.90;16.15;;;;;;;15.68;100.00;102249.09;10586245;27;20522;-84
2023/12/18 18:21:21;;;;;;;16.95;10.57;;;;;;;15.40;100.00;102251.19;10596037;27;20053;-84
2023/12/18 18:26:45;;;;;;;17.63;11.48;;;;;;;15.20;100.00;102256.97;10588426;27;20142;-80
2023/12/18 18:32:09;;;;;;;13.38;8.30;;;;;;;15.23;100.00;102251.72;10598807;27;20053;-80
2023/12/18 18:37:33;;;;;;;12.73;8.00;;;;;;;15.44;100.00;102238.81;10552901;27;20592;-83
2023/12/18 18:42:55;;;;;;;10.00;5.57;;;;;;;15.61;100.00;102247.19;10599441;27;20074;-83
2023/12/18 18:48:18;;;;;;;17.38;10.43;;;;;;;15.67;100.00;102242.88;10590558;27;20054;-85
2023/12/18 18:53:42;;;;;;;12.45;7.05;;;;;;;15.78;100.00;102248.38;10593964;27;20047;-83
2023/12/18 18:59:07;;;;;;;15.80;8.57;;;;;;;15.81;100.00;102225.38;10552087;28;20139;-87
2023/12/18 19:04:30;;;;;;;20.80;17.77;;;;;;;15.71;100.00;102234.06;10590486;27;20043;-89
2023/12/18 19:10:00;;;;;;;14.85;9.80;;;;;;;15.57;100.00;102242.66;10607052;27;20047;-83
2023/12/18 19:15:22;;;;;;;17.67;6.15;;;;;;;15.50;100.00;102230.97;10589494;27;20047;-82
2023/12/18 19:20:45;;;;;;;14.35;9.43;;;;;;;15.52;100.00;102234.56;10604681;27;20519;-78
2023/12/18 19:26:09;;;;;;;11.85;5.68;;;;;;;15.44;100.00;102234.41;10586908;27;20058;-79
2023/12/18 19:31:34;;;;;;;13.10;5.97;;;;;;;15.30;100.00;102235.00;10598575;27;20035;-80
2023/12/18 19:36:56;;;;;;;15.55;5.72;;;;;;;14.94;100.00;102235.16;10563281;28;20058;-80
2023/12/18 19:42:20;;;;;;;21.08;9.65;;;;;;;14.67;100.00;102224.81;10596844;27;20039;-81
2023/12/18 19:47:44;;;;;;;21.10;9.13;;;;;;;14.77;100.00;102234.75;10602788;27;20559;-82
2023/12/18 19:53:08;;;;;;;15.10;7.70;;;;;;;15.01;100.00;102227.34;10582247;27;20047;-80
2023/12/18 19:58:32;;;;;;;15.10;7.25;;;;;;;14.87;100.00;102228.81;10591567;27;20134;-80
2023/12/18 20:03:54;;;;;;;13.80;7.28;;;;;;;14.71;100.00;102221.34;10591656;27;20055;-81
2023/12/18 20:09:17;;;;;;;9.88;4.80;;;;;;;14.58;100.00;102217.50;10549985;27;20055;-84
2023/12/18 20:14:41;;;;;;;10.80;5.20;;;;;;;14.46;100.00;102221.66;10569041;27;20056;-84
2023/12/18 20:20:03;;;;;;;14.90;8.07;;;;;;;14.43;100.00;102226.91;10582998;27;20466;-84
2023/12/18 20:25:25;;;;;;;12.75;7.45;;;;;;;14.36;100.00;102226.72;10599277;27;20042;-84
2023/12/18 20:30:49;;;;;;;8.10;3.40;;;;;;;14.25;100.00;102219.34;10577169;27;20062;-84
2023/12/18 20:36:12;;;;;;;11.57;5.25;;;;;;;14.13;100.00;102224.38;10596525;27;20043;-84
2023/12/18 20:41:34;;;;;;;12.25;6.28;;;;;;;13.94;100.00;102228.31;10591687;27;20066;-85
2023/12/18 20:46:58;;;;;;;14.10;6.47;;;;;;;13.97;100.00;102223.09;10588462;27;20048;-84
2023/12/18 20:52:21;;;;;;;12.48;6.97;;;;;;;13.95;100.00;102225.72;10585583;27;20047;-84
2023/12/18 20:57:43;;;;;;;9.10;5.30;;;;;;;14.03;100.00;102222.34;10588884;27;20077;-84
2023/12/18 21:03:07;;;;;;;12.38;5.72;;;;;;;14.24;100.00;102222.91;10587244;27;20055;-84
2023/12/18 21:08:30;;;;;;;16.17;9.43;;;;;;;14.59;100.00;102216.66;10580690;27;20058;-84
2023/12/18 21:13:52;;;;;;;12.82;7.88;;;;;;;14.68;100.00;102208.91;10587636;27;20103;-84
2023/12/18 21:19:17;;;;;;;11.48;4.18;;;;;;;14.54;100.00;102207.69;10590035;27;20106;-84
2023/12/18 21:24:39;;;;;;;10.88;5.05;;;;;;;14.35;100.00;102201.03;10603610;27;20039;-84
2023/12/18 21:30:02;;;;;;;9.23;4.32;;;;;;;14.29;100.00;102192.91;10592716;27;20075;-83
2023/12/18 21:35:26;;;;;;;6.13;3.00;;;;;;;14.27;100.00;102191.97;10581505;27;20039;-84
2023/12/18 21:40:49;;;;;;;17.85;5.95;;;;;;;14.29;100.00;102189.34;10574730;27;20055;-84
2023/12/18 21:46:17;;;;;;;9.65;4.65;;;;;;;14.39;100.00;102180.75;10604713;28;20071;-84
2023/12/18 21:51:42;;;;;;;10.93;4.00;;;;;;;14.33;100.00;102177.94;10561073;28;20055;-84
2023/12/18 21:57:07;;;;;;;7.18;3.83;;;;;;;14.17;100.00;102173.13;10538691;28;20544;-86
2023/12/18 22:02:34;;;;;;;8.90;3.40;;;;;;;14.10;100.00;102174.75;10520125;28;20044;-84
2023/12/18 22:07:59;;;;;;;;;;;;;;;14.50;100.00;102176.59;10570541;28;20059;-84
2023/12/18 22:13:22;;;;;;;7.90;2.95;;;;;;;14.31;100.00;102171.66;10533237;28;20354;-84
2023/12/18 22:18:46;;;;;;;8.43;3.15;;;;;;;14.42;100.00;102164.00;10531698;28;20080;-84
2023/12/18 22:24:11;;;;;;;8.05;3.60;;;;;;;14.31;100.00;102164.59;10520940;28;20054;-85
2023/12/18 22:29:34;;;;;;;10.75;2.88;;;;;;;14.26;100.00;102155.63;10518026;28;20084;-86
2023/12/18 22:34:58;;;;;;;9.52;2.83;;;;;;;14.11;100.00;102142.00;10534485;28;20048;-82
2023/12/18 22:40:26;;;;;;;11.00;2.67;;;;;;;14.18;100.00;102143.94;10531464;28;20052;-84
2023/12/18 22:45:48;;;;;;;9.90;3.80;;;;;;;14.31;100.00;102138.03;10561347;28;20059;-84
2023/12/18 22:51:12;;;;;;;6.55;2.50;;;;;;;14.42;100.00;102143.63;10566924;28;20044;-84
2023/12/18 22:56:37;;;;;;;10.57;2.20;;;;;;;14.55;100.00;102135.06;10551532;28;20375;-84
2023/12/18 23:02:03;;;;;;;10.25;3.05;;;;;;;14.64;100.00;102119.31;10560683;28;20036;-84
2023/12/18 23:07:27;;;;;;;6.32;2.30;;;;;;;14.98;100.00;102118.22;10549373;28;20052;-83
2023/12/18 23:12:52;;;;;;;9.60;2.80;;;;;;;15.18;100.00;102117.69;10566150;28;20048;-84
2023/12/18 23:18:16;;;;;;;10.98;2.90;;;;;;;15.21;100.00;102112.44;10536788;28;20075;-83
2023/12/18 23:23:41;;;;;;;11.27;2.90;;;;;;;15.10;100.00;102110.47;10548272;28;20385;-85
2023/12/18 23:29:05;;;;;;;7.90;2.33;;;;;;;14.85;100.00;102102.00;10542008;28;20040;-84
2023/12/18 23:34:28;;;;;;;11.23;2.42;;;;;;;14.59;100.00;102109.44;10563003;28;20048;-84
2023/12/18 23:39:52;;;;;;;9.23;2.67;;;;;;;14.75;100.00;102103.59;10563096;28;20070;-84
2023/12/18 23:45:16;;;;;;;11.80;3.72;;;;;;;14.87;100.00;102102.94;10537890;28;20046;-84
2023/12/18 23:50:39;;;;;;;9.23;3.10;;;;;;;14.76;100.00;102108.03;10573310;28;20137;-84
2023/12/18 23:56:03;;;;;;;7.50;3.65;;;;;;;14.73;100.00;102100.88;10574596;28;20143;-84
